CMB weather

Mosqueda Airport
Mexicali, Baja California, Mexico

Public forecast

Using degrees Celsius for public forecast. Weather courtesy of forecast.io.

METAR (pilot weather report)

Closest report is General Rodolfo Sánchez Taboada International Airport, 28.1 nm (52.0 km) N. Retrieved 2019/08/25 21:43 UTC (0 seconds ago):

MMML 252143Z 14010KT 10SM SCT040 BKN200 37/21 A2985 RMK 8/108

TAF (pilot weather forecast)

Closest forecast is General Rodolfo Sánchez Taboada International Airport, 28.1 nm (52.0 km) N. Retrieved 2019/08/25 18:48 UTC (3 hours ago):

TAF MMML 251640Z 2518/2618 14010KT P6SM SCT020 BECMG 2520/2521 14015KT FM260200 13010KT P6SM SKC BECMG 2605/2606 00000KT FM261200 09005KT P6SM SCT220